sensor_id;sensor_type;location;lat;lon;timestamp;temperature;humidity
9861;DHT22;4969;52.304;4.968;2023-11-21T00:01:03;10.02;83.24
9861;DHT22;4969;52.304;4.968;2023-11-21T00:03:30;10.05;83.44
9861;DHT22;4969;52.304;4.968;2023-11-21T00:05:56;10.26;83.75
9861;DHT22;4969;52.304;4.968;2023-11-21T00:08:23;10.33;83.68
9861;DHT22;4969;52.304;4.968;2023-11-21T00:10:49;10.27;83.61
9861;DHT22;4969;52.304;4.968;2023-11-21T00:13:16;10.23;83.67
9861;DHT22;4969;52.304;4.968;2023-11-21T00:15:43;10.27;83.96
9861;DHT22;4969;52.304;4.968;2023-11-21T00:18:11;10.31;83.91
9861;DHT22;4969;52.304;4.968;2023-11-21T00:20:38;10.38;84.08
9861;DHT22;4969;52.304;4.968;2023-11-21T00:23:04;10.54;84.17
9861;DHT22;4969;52.304;4.968;2023-11-21T00:25:31;10.65;84.35
9861;DHT22;4969;52.304;4.968;2023-11-21T00:27:57;11.17;84.22
9861;DHT22;4969;52.304;4.968;2023-11-21T00:30:24;11.30;84.17
9861;DHT22;4969;52.304;4.968;2023-11-21T00:32:51;10.95;83.44
9861;DHT22;4969;52.304;4.968;2023-11-21T00:35:19;10.71;83.25
9861;DHT22;4969;52.304;4.968;2023-11-21T00:37:45;10.65;83.59
9861;DHT22;4969;52.304;4.968;2023-11-21T00:40:13;10.57;83.53
9861;DHT22;4969;52.304;4.968;2023-11-21T00:42:40;10.47;83.54
9861;DHT22;4969;52.304;4.968;2023-11-21T00:45:08;10.54;83.74
9861;DHT22;4969;52.304;4.968;2023-11-21T00:47:35;10.60;83.68
9861;DHT22;4969;52.304;4.968;2023-11-21T00:50:03;10.54;83.82
9861;DHT22;4969;52.304;4.968;2023-11-21T00:52:32;10.64;84.03
9861;DHT22;4969;52.304;4.968;2023-11-21T00:54:59;10.68;83.96
9861;DHT22;4969;52.304;4.968;2023-11-21T00:57:26;10.95;84.13
9861;DHT22;4969;52.304;4.968;2023-11-21T00:59:53;11.16;84.66
9861;DHT22;4969;52.304;4.968;2023-11-21T01:02:20;11.47;84.57
9861;DHT22;4969;52.304;4.968;2023-11-21T01:04:46;11.44;84.18
9861;DHT22;4969;52.304;4.968;2023-11-21T01:07:13;11.26;83.68
9861;DHT22;4969;52.304;4.968;2023-11-21T01:09:41;11.02;83.46
9861;DHT22;4969;52.304;4.968;2023-11-21T01:12:09;10.92;83.57
9861;DHT22;4969;52.304;4.968;2023-11-21T01:14:36;10.86;83.68
9861;DHT22;4969;52.304;4.968;2023-11-21T01:17:03;10.99;83.72
9861;DHT22;4969;52.304;4.968;2023-11-21T01:19:30;10.99;83.73
9861;DHT22;4969;52.304;4.968;2023-11-21T01:21:57;10.96;83.81
9861;DHT22;4969;52.304;4.968;2023-11-21T01:24:24;10.89;83.69
9861;DHT22;4969;52.304;4.968;2023-11-21T01:26:52;10.82;83.71
9861;DHT22;4969;52.304;4.968;2023-11-21T01:29:19;10.78;83.65
9861;DHT22;4969;52.304;4.968;2023-11-21T01:31:45;10.78;83.94
9861;DHT22;4969;52.304;4.968;2023-11-21T01:34:12;10.79;83.96
9861;DHT22;4969;52.304;4.968;2023-11-21T01:36:39;10.82;83.86
9861;DHT22;4969;52.304;4.968;2023-11-21T01:39:06;10.75;83.88
9861;DHT22;4969;52.304;4.968;2023-11-21T01:41:36;10.81;83.70
9861;DHT22;4969;52.304;4.968;2023-11-21T01:44:04;10.74;83.87
9861;DHT22;4969;52.304;4.968;2023-11-21T01:46:32;10.74;83.79
9861;DHT22;4969;52.304;4.968;2023-11-21T01:49:00;10.74;84.03
9861;DHT22;4969;52.304;4.968;2023-11-21T01:51:26;10.81;83.96
9861;DHT22;4969;52.304;4.968;2023-11-21T01:53:53;10.71;83.81
9861;DHT22;4969;52.304;4.968;2023-11-21T01:56:20;10.75;84.05
9861;DHT22;4969;52.304;4.968;2023-11-21T01:58:47;10.74;83.92
9861;DHT22;4969;52.304;4.968;2023-11-21T02:01:15;10.83;84.11
9861;DHT22;4969;52.304;4.968;2023-11-21T02:03:44;10.82;84.17
9861;DHT22;4969;52.304;4.968;2023-11-21T02:06:10;10.91;84.20
9861;DHT22;4969;52.304;4.968;2023-11-21T02:08:37;10.97;84.21
9861;DHT22;4969;52.304;4.968;2023-11-21T02:11:05;11.09;84.30
9861;DHT22;4969;52.304;4.968;2023-11-21T02:13:32;11.06;83.91
9861;DHT22;4969;52.304;4.968;2023-11-21T02:15:59;11.00;83.85
9861;DHT22;4969;52.304;4.968;2023-11-21T02:18:27;10.96;83.94
9861;DHT22;4969;52.304;4.968;2023-11-21T02:20:55;11.00;83.99
9861;DHT22;4969;52.304;4.968;2023-11-21T02:23:23;10.97;83.83
9861;DHT22;4969;52.304;4.968;2023-11-21T02:25:54;10.95;83.80
9861;DHT22;4969;52.304;4.968;2023-11-21T02:28:20;10.99;83.95
9861;DHT22;4969;52.304;4.968;2023-11-21T02:30:51;11.04;84.06
9861;DHT22;4969;52.304;4.968;2023-11-21T02:33:20;11.19;84.30
9861;DHT22;4969;52.304;4.968;2023-11-21T02:35:47;11.37;84.11
9861;DHT22;4969;52.304;4.968;2023-11-21T02:38:14;11.20;83.76
9861;DHT22;4969;52.304;4.968;2023-11-21T02:40:42;11.16;83.83
9861;DHT22;4969;52.304;4.968;2023-11-21T02:43:08;11.19;83.81
9861;DHT22;4969;52.304;4.968;2023-11-21T02:45:35;11.14;83.79
9861;DHT22;4969;52.304;4.968;2023-11-21T02:48:02;11.10;83.72
9861;DHT22;4969;52.304;4.968;2023-11-21T02:50:28;11.07;83.71
9861;DHT22;4969;52.304;4.968;2023-11-21T02:52:55;11.09;83.79
9861;DHT22;4969;52.304;4.968;2023-11-21T02:55:23;11.13;83.94
9861;DHT22;4969;52.304;4.968;2023-11-21T02:57:51;11.12;83.83
9861;DHT22;4969;52.304;4.968;2023-11-21T03:00:18;11.09;83.91
9861;DHT22;4969;52.304;4.968;2023-11-21T03:02:45;11.09;83.82
9861;DHT22;4969;52.304;4.968;2023-11-21T03:05:13;11.09;83.83
9861;DHT22;4969;52.304;4.968;2023-11-21T03:07:39;11.12;83.84
9861;DHT22;4969;52.304;4.968;2023-11-21T03:10:07;11.13;83.87
9861;DHT22;4969;52.304;4.968;2023-11-21T03:12:36;11.17;83.95
9861;DHT22;4969;52.304;4.968;2023-11-21T03:15:05;11.17;83.96
9861;DHT22;4969;52.304;4.968;2023-11-21T03:17:32;11.14;83.84
9861;DHT22;4969;52.304;4.968;2023-11-21T03:19:59;11.19;83.94
9861;DHT22;4969;52.304;4.968;2023-11-21T03:22:25;11.17;83.88
9861;DHT22;4969;52.304;4.968;2023-11-21T03:24:52;11.16;83.91
9861;DHT22;4969;52.304;4.968;2023-11-21T03:27:19;11.17;83.87
9861;DHT22;4969;52.304;4.968;2023-11-21T03:29:45;11.14;83.86
9861;DHT22;4969;52.304;4.968;2023-11-21T03:32:13;11.16;84.09
9861;DHT22;4969;52.304;4.968;2023-11-21T03:34:53;11.23;84.12
9861;DHT22;4969;52.304;4.968;2023-11-21T03:37:20;11.20;83.97
9861;DHT22;4969;52.304;4.968;2023-11-21T03:39:47;11.21;84.05
9861;DHT22;4969;52.304;4.968;2023-11-21T03:42:13;11.27;84.31
9861;DHT22;4969;52.304;4.968;2023-11-21T03:44:40;11.40;84.46
9861;DHT22;4969;52.304;4.968;2023-11-21T03:47:06;11.37;84.16
9861;DHT22;4969;52.304;4.968;2023-11-21T03:49:34;11.37;84.20
9861;DHT22;4969;52.304;4.968;2023-11-21T03:52:01;11.38;84.65
9861;DHT22;4969;52.304;4.968;2023-11-21T03:54:27;11.62;84.25
9861;DHT22;4969;52.304;4.968;2023-11-21T03:56:54;11.57;84.06
9861;DHT22;4969;52.304;4.968;2023-11-21T03:59:21;11.51;84.01
9861;DHT22;4969;52.304;4.968;2023-11-21T04:01:49;11.47;84.16
9861;DHT22;4969;52.304;4.968;2023-11-21T04:04:16;11.43;84.10
9861;DHT22;4969;52.304;4.968;2023-11-21T04:06:44;11.48;84.15
9861;DHT22;4969;52.304;4.968;2023-11-21T04:09:10;11.64;84.51
9861;DHT22;4969;52.304;4.968;2023-11-21T04:11:37;11.75;84.41
9861;DHT22;4969;52.304;4.968;2023-11-21T04:14:04;11.58;84.11
9861;DHT22;4969;52.304;4.968;2023-11-21T04:16:31;11.46;84.59
9861;DHT22;4969;52.304;4.968;2023-11-21T04:18:58;11.48;85.00
9861;DHT22;4969;52.304;4.968;2023-11-21T04:21:25;11.75;85.03
9861;DHT22;4969;52.304;4.968;2023-11-21T04:23:53;11.71;84.97
9861;DHT22;4969;52.304;4.968;2023-11-21T04:26:20;11.81;84.87
9861;DHT22;4969;52.304;4.968;2023-11-21T04:28:47;11.97;84.72
9861;DHT22;4969;52.304;4.968;2023-11-21T04:31:13;11.82;84.37
9861;DHT22;4969;52.304;4.968;2023-11-21T04:33:40;11.65;84.80
9861;DHT22;4969;52.304;4.968;2023-11-21T04:36:07;11.81;84.56
9861;DHT22;4969;52.304;4.968;2023-11-21T04:38:33;11.67;84.47
9861;DHT22;4969;52.304;4.968;2023-11-21T04:41:01;11.65;84.47
9861;DHT22;4969;52.304;4.968;2023-11-21T04:43:28;11.78;85.10
9861;DHT22;4969;52.304;4.968;2023-11-21T04:45:55;11.65;84.39
9861;DHT22;4969;52.304;4.968;2023-11-21T04:48:21;11.79;84.46
9861;DHT22;4969;52.304;4.968;2023-11-21T04:50:48;11.62;84.21
9861;DHT22;4969;52.304;4.968;2023-11-21T04:53:15;11.48;84.39
9861;DHT22;4969;52.304;4.968;2023-11-21T04:55:41;11.41;84.26
9861;DHT22;4969;52.304;4.968;2023-11-21T04:58:09;11.34;84.68
9861;DHT22;4969;52.304;4.968;2023-11-21T05:00:37;11.38;84.70
9861;DHT22;4969;52.304;4.968;2023-11-21T05:03:04;11.44;85.00
9861;DHT22;4969;52.304;4.968;2023-11-21T05:05:32;11.44;84.95
9861;DHT22;4969;52.304;4.968;2023-11-21T05:07:59;11.46;84.90
9861;DHT22;4969;52.304;4.968;2023-11-21T05:10:24;11.46;84.80
9861;DHT22;4969;52.304;4.968;2023-11-21T05:12:51;11.59;85.40
9861;DHT22;4969;52.304;4.968;2023-11-21T05:15:19;11.71;85.87
9861;DHT22;4969;52.304;4.968;2023-11-21T05:17:46;11.71;85.16
9861;DHT22;4969;52.304;4.968;2023-11-21T05:20:15;11.71;84.93
9861;DHT22;4969;52.304;4.968;2023-11-21T05:22:46;11.71;84.53
9861;DHT22;4969;52.304;4.968;2023-11-21T05:25:13;11.76;85.78
9861;DHT22;4969;52.304;4.968;2023-11-21T05:27:40;11.93;85.17
9861;DHT22;4969;52.304;4.968;2023-11-21T05:30:07;11.81;84.74
9861;DHT22;4969;52.304;4.968;2023-11-21T05:32:38;11.79;84.96
9861;DHT22;4969;52.304;4.968;2023-11-21T05:35:05;11.83;85.47
9861;DHT22;4969;52.304;4.968;2023-11-21T05:37:35;11.76;85.18
9861;DHT22;4969;52.304;4.968;2023-11-21T05:40:05;11.64;85.26
9861;DHT22;4969;52.304;4.968;2023-11-21T05:42:31;11.67;85.28
9861;DHT22;4969;52.304;4.968;2023-11-21T05:44:58;11.67;85.49
9861;DHT22;4969;52.304;4.968;2023-11-21T05:47:35;11.87;85.16
9861;DHT22;4969;52.304;4.968;2023-11-21T05:50:04;11.87;85.21
9861;DHT22;4969;52.304;4.968;2023-11-21T05:52:31;11.74;84.64
9861;DHT22;4969;52.304;4.968;2023-11-21T05:54:58;11.95;85.26
9861;DHT22;4969;52.304;4.968;2023-11-21T05:57:25;12.26;84.83
9861;DHT22;4969;52.304;4.968;2023-11-21T05:59:51;11.86;84.16
9861;DHT22;4969;52.304;4.968;2023-11-21T06:02:18;11.65;84.84
9861;DHT22;4969;52.304;4.968;2023-11-21T06:04:44;11.65;85.83
9861;DHT22;4969;52.304;4.968;2023-11-21T06:07:12;11.52;85.50
9861;DHT22;4969;52.304;4.968;2023-11-21T06:09:40;11.75;86.63
9861;DHT22;4969;52.304;4.968;2023-11-21T06:12:06;11.41;85.88
9861;DHT22;4969;52.304;4.968;2023-11-21T06:14:33;11.44;86.23
9861;DHT22;4969;52.304;4.968;2023-11-21T06:17:00;11.76;86.00
9861;DHT22;4969;52.304;4.968;2023-11-21T06:19:27;11.55;85.47
9861;DHT22;4969;52.304;4.968;2023-11-21T06:21:53;11.36;86.33
9861;DHT22;4969;52.304;4.968;2023-11-21T06:24:22;11.23;86.68
9861;DHT22;4969;52.304;4.968;2023-11-21T06:26:48;11.36;88.01
9861;DHT22;4969;52.304;4.968;2023-11-21T06:29:15;11.61;87.65
9861;DHT22;4969;52.304;4.968;2023-11-21T06:31:41;11.51;87.22
9861;DHT22;4969;52.304;4.968;2023-11-21T06:34:09;11.62;86.40
9861;DHT22;4969;52.304;4.968;2023-11-21T06:36:35;11.59;86.00
9861;DHT22;4969;52.304;4.968;2023-11-21T06:39:02;11.76;86.67
9861;DHT22;4969;52.304;4.968;2023-11-21T06:41:33;11.54;85.95
9861;DHT22;4969;52.304;4.968;2023-11-21T06:44:00;11.38;86.37
9861;DHT22;4969;52.304;4.968;2023-11-21T06:46:26;11.28;86.80
9861;DHT22;4969;52.304;4.968;2023-11-21T06:48:53;11.03;87.75
9861;DHT22;4969;52.304;4.968;2023-11-21T06:51:20;11.02;88.35
9861;DHT22;4969;52.304;4.968;2023-11-21T06:53:46;11.14;88.51
9861;DHT22;4969;52.304;4.968;2023-11-21T06:56:16;11.12;88.25
9861;DHT22;4969;52.304;4.968;2023-11-21T06:58:45;10.97;88.53
9861;DHT22;4969;52.304;4.968;2023-11-21T07:01:12;11.14;89.35
9861;DHT22;4969;52.304;4.968;2023-11-21T07:03:38;11.06;88.59
9861;DHT22;4969;52.304;4.968;2023-11-21T07:06:06;11.04;88.63
9861;DHT22;4969;52.304;4.968;2023-11-21T07:08:33;10.89;88.99
9861;DHT22;4969;52.304;4.968;2023-11-21T07:11:00;11.02;89.61
9861;DHT22;4969;52.304;4.968;2023-11-21T07:13:28;11.09;88.72
9861;DHT22;4969;52.304;4.968;2023-11-21T07:15:56;11.13;88.68
9861;DHT22;4969;52.304;4.968;2023-11-21T07:18:23;11.31;88.30
9861;DHT22;4969;52.304;4.968;2023-11-21T07:20:49;11.04;88.35
9861;DHT22;4969;52.304;4.968;2023-11-21T07:23:17;11.16;88.63
9861;DHT22;4969;52.304;4.968;2023-11-21T07:25:43;11.32;88.25
9861;DHT22;4969;52.304;4.968;2023-11-21T07:28:10;11.10;88.27
9861;DHT22;4969;52.304;4.968;2023-11-21T07:30:36;11.00;88.57
9861;DHT22;4969;52.304;4.968;2023-11-21T07:33:05;11.02;89.23
9861;DHT22;4969;52.304;4.968;2023-11-21T07:35:32;11.04;88.64
9861;DHT22;4969;52.304;4.968;2023-11-21T07:37:59;10.96;88.93
9861;DHT22;4969;52.304;4.968;2023-11-21T07:40:26;10.81;89.52
9861;DHT22;4969;52.304;4.968;2023-11-21T07:42:52;10.88;89.47
9861;DHT22;4969;52.304;4.968;2023-11-21T07:45:22;10.75;89.77
9861;DHT22;4969;52.304;4.968;2023-11-21T07:47:49;10.81;90.53
9861;DHT22;4969;52.304;4.968;2023-11-21T07:50:17;10.72;90.25
9861;DHT22;4969;52.304;4.968;2023-11-21T07:52:44;10.81;90.24
9861;DHT22;4969;52.304;4.968;2023-11-21T07:55:10;10.75;90.27
9861;DHT22;4969;52.304;4.968;2023-11-21T07:57:37;10.65;90.45
9861;DHT22;4969;52.304;4.968;2023-11-21T08:00:05;10.85;90.86
9861;DHT22;4969;52.304;4.968;2023-11-21T08:02:34;10.76;90.23
9861;DHT22;4969;52.304;4.968;2023-11-21T08:05:01;10.74;90.31
9861;DHT22;4969;52.304;4.968;2023-11-21T08:07:28;10.63;90.59
9861;DHT22;4969;52.304;4.968;2023-11-21T08:09:55;10.65;91.08
9861;DHT22;4969;52.304;4.968;2023-11-21T08:12:22;10.65;90.79
9861;DHT22;4969;52.304;4.968;2023-11-21T08:14:49;10.69;90.78
9861;DHT22;4969;52.304;4.968;2023-11-21T08:17:15;10.64;90.91
9861;DHT22;4969;52.304;4.968;2023-11-21T08:19:42;10.71;90.79
9861;DHT22;4969;52.304;4.968;2023-11-21T08:22:10;10.64;90.74
9861;DHT22;4969;52.304;4.968;2023-11-21T08:24:38;10.61;90.65
9861;DHT22;4969;52.304;4.968;2023-11-21T08:27:04;10.85;90.82
9861;DHT22;4969;52.304;4.968;2023-11-21T08:29:32;10.88;89.95
9861;DHT22;4969;52.304;4.968;2023-11-21T08:31:59;10.75;89.97
9861;DHT22;4969;52.304;4.968;2023-11-21T08:34:26;10.95;90.01
9861;DHT22;4969;52.304;4.968;2023-11-21T08:36:53;10.91;89.93
9861;DHT22;4969;52.304;4.968;2023-11-21T08:39:20;10.91;89.49
9861;DHT22;4969;52.304;4.968;2023-11-21T08:41:50;10.78;89.32
9861;DHT22;4969;52.304;4.968;2023-11-21T08:44:17;10.81;89.67
9861;DHT22;4969;52.304;4.968;2023-11-21T08:46:44;10.86;89.62
9861;DHT22;4969;52.304;4.968;2023-11-21T08:49:12;10.83;89.39
9861;DHT22;4969;52.304;4.968;2023-11-21T08:51:39;11.20;88.94
9861;DHT22;4969;52.304;4.968;2023-11-21T08:54:06;10.91;89.23
9861;DHT22;4969;52.304;4.968;2023-11-21T08:56:33;10.88;89.11
9861;DHT22;4969;52.304;4.968;2023-11-21T08:59:01;10.79;89.24
9861;DHT22;4969;52.304;4.968;2023-11-21T09:01:28;10.63;89.55
9861;DHT22;4969;52.304;4.968;2023-11-21T09:03:56;10.60;89.69
9861;DHT22;4969;52.304;4.968;2023-11-21T09:06:22;10.61;89.58
9861;DHT22;4969;52.304;4.968;2023-11-21T09:08:49;10.74;89.03
9861;DHT22;4969;52.304;4.968;2023-11-21T09:11:16;10.69;88.98
9861;DHT22;4969;52.304;4.968;2023-11-21T09:13:43;10.95;90.33
9861;DHT22;4969;52.304;4.968;2023-11-21T09:16:11;10.91;89.27
9861;DHT22;4969;52.304;4.968;2023-11-21T09:18:37;10.68;88.98
9861;DHT22;4969;52.304;4.968;2023-11-21T09:21:05;10.71;88.75
9861;DHT22;4969;52.304;4.968;2023-11-21T09:23:31;10.89;89.47
9861;DHT22;4969;52.304;4.968;2023-11-21T09:25:58;10.85;88.12
9861;DHT22;4969;52.304;4.968;2023-11-21T09:28:26;11.13;88.48
9861;DHT22;4969;52.304;4.968;2023-11-21T09:30:52;11.07;87.65
9861;DHT22;4969;52.304;4.968;2023-11-21T09:33:20;10.61;88.92
9861;DHT22;4969;52.304;4.968;2023-11-21T09:35:48;10.83;89.81
9861;DHT22;4969;52.304;4.968;2023-11-21T09:38:16;10.76;88.76
9861;DHT22;4969;52.304;4.968;2023-11-21T09:40:42;10.71;88.91
9861;DHT22;4969;52.304;4.968;2023-11-21T09:43:15;10.61;89.04
9861;DHT22;4969;52.304;4.968;2023-11-21T09:45:45;10.72;89.84
9861;DHT22;4969;52.304;4.968;2023-11-21T09:48:13;10.81;88.71
9861;DHT22;4969;52.304;4.968;2023-11-21T09:50:41;10.58;88.90
9861;DHT22;4969;52.304;4.968;2023-11-21T09:53:12;10.58;89.02
9861;DHT22;4969;52.304;4.968;2023-11-21T09:55:42;10.41;89.32
9861;DHT22;4969;52.304;4.968;2023-11-21T09:58:09;10.42;89.55
9861;DHT22;4969;52.304;4.968;2023-11-21T10:00:40;10.88;89.65
9861;DHT22;4969;52.304;4.968;2023-11-21T10:03:07;10.89;88.77
9861;DHT22;4969;52.304;4.968;2023-11-21T10:05:34;10.75;90.06
9861;DHT22;4969;52.304;4.968;2023-11-21T10:08:02;10.78;88.62
9861;DHT22;4969;52.304;4.968;2023-11-21T10:10:32;10.82;88.15
9861;DHT22;4969;52.304;4.968;2023-11-21T10:13:02;10.55;88.72
9861;DHT22;4969;52.304;4.968;2023-11-21T10:15:33;10.55;88.94
9861;DHT22;4969;52.304;4.968;2023-11-21T10:18:02;10.75;89.54
9861;DHT22;4969;52.304;4.968;2023-11-21T10:20:28;10.57;88.57
9861;DHT22;4969;52.304;4.968;2023-11-21T10:22:55;10.58;88.68
9861;DHT22;4969;52.304;4.968;2023-11-21T10:25:24;10.48;88.83
9861;DHT22;4969;52.304;4.968;2023-11-21T10:27:57;10.54;88.94
9861;DHT22;4969;52.304;4.968;2023-11-21T10:30:28;10.63;89.27
9861;DHT22;4969;52.304;4.968;2023-11-21T10:32:58;10.88;90.56
9861;DHT22;4969;52.304;4.968;2023-11-21T10:35:38;10.58;88.62
9861;DHT22;4969;52.304;4.968;2023-11-21T10:38:05;10.74;88.74
9861;DHT22;4969;52.304;4.968;2023-11-21T10:40:37;10.48;89.22
9861;DHT22;4969;52.304;4.968;2023-11-21T10:43:06;10.68;89.72
9861;DHT22;4969;52.304;4.968;2023-11-21T10:45:34;10.42;89.53
9861;DHT22;4969;52.304;4.968;2023-11-21T10:48:05;10.30;89.93
9861;DHT22;4969;52.304;4.968;2023-11-21T10:50:32;10.36;89.71
9861;DHT22;4969;52.304;4.968;2023-11-21T10:53:01;10.49;90.29
9861;DHT22;4969;52.304;4.968;2023-11-21T10:55:27;10.38;89.32
9861;DHT22;4969;52.304;4.968;2023-11-21T10:57:58;10.17;90.16
9861;DHT22;4969;52.304;4.968;2023-11-21T11:00:25;10.16;90.39
9861;DHT22;4969;52.304;4.968;2023-11-21T11:02:53;10.63;90.92
9861;DHT22;4969;52.304;4.968;2023-11-21T11:05:22;10.27;89.37
9861;DHT22;4969;52.304;4.968;2023-11-21T11:07:52;10.28;90.04
9861;DHT22;4969;52.304;4.968;2023-11-21T11:10:20;10.23;89.60
9861;DHT22;4969;52.304;4.968;2023-11-21T11:12:48;10.16;89.81
9861;DHT22;4969;52.304;4.968;2023-11-21T11:15:16;10.21;89.66
9861;DHT22;4969;52.304;4.968;2023-11-21T11:17:44;10.09;89.64
9861;DHT22;4969;52.304;4.968;2023-11-21T11:20:13;10.03;89.98
9861;DHT22;4969;52.304;4.968;2023-11-21T11:22:45;10.06;89.99
9861;DHT22;4969;52.304;4.968;2023-11-21T11:25:25;10.26;90.63
9861;DHT22;4969;52.304;4.968;2023-11-21T11:27:57;10.03;89.32
9861;DHT22;4969;52.304;4.968;2023-11-21T11:30:40;10.09;89.46
9861;DHT22;4969;52.304;4.968;2023-11-21T11:33:14;9.93;89.46
9861;DHT22;4969;52.304;4.968;2023-11-21T11:35:52;10.03;89.53
9861;DHT22;4969;52.304;4.968;2023-11-21T11:38:21;10.06;89.76
9861;DHT22;4969;52.304;4.968;2023-11-21T11:40:53;10.26;88.42
9861;DHT22;4969;52.304;4.968;2023-11-21T11:43:25;10.24;88.47
9861;DHT22;4969;52.304;4.968;2023-11-21T11:45:55;10.16;87.83
9861;DHT22;4969;52.304;4.968;2023-11-21T11:48:22;10.26;88.22
9861;DHT22;4969;52.304;4.968;2023-11-21T11:51:02;10.24;87.12
9861;DHT22;4969;52.304;4.968;2023-11-21T11:53:35;10.13;88.22
9861;DHT22;4969;52.304;4.968;2023-11-21T11:56:20;10.00;88.38
9861;DHT22;4969;52.304;4.968;2023-11-21T11:58:49;10.33;87.72
9861;DHT22;4969;52.304;4.968;2023-11-21T12:01:18;10.19;88.25
9861;DHT22;4969;52.304;4.968;2023-11-21T12:03:45;10.85;89.42
9861;DHT22;4969;52.304;4.968;2023-11-21T12:06:33;10.40;87.95
9861;DHT22;4969;52.304;4.968;2023-11-21T12:09:01;10.88;88.98
9861;DHT22;4969;52.304;4.968;2023-11-21T12:11:30;10.42;86.40
9861;DHT22;4969;52.304;4.968;2023-11-21T12:13:57;10.06;87.16
9861;DHT22;4969;52.304;4.968;2023-11-21T12:16:26;10.08;87.55
9861;DHT22;4969;52.304;4.968;2023-11-21T12:18:53;10.17;87.58
9861;DHT22;4969;52.304;4.968;2023-11-21T12:21:20;10.17;87.31
9861;DHT22;4969;52.304;4.968;2023-11-21T12:23:47;10.27;86.63
9861;DHT22;4969;52.304;4.968;2023-11-21T12:26:13;10.61;88.19
9861;DHT22;4969;52.304;4.968;2023-11-21T12:28:40;10.44;85.91
9861;DHT22;4969;52.304;4.968;2023-11-21T12:31:06;10.33;86.30
9861;DHT22;4969;52.304;4.968;2023-11-21T12:33:34;10.05;86.98
9861;DHT22;4969;52.304;4.968;2023-11-21T12:36:01;10.14;88.20
9861;DHT22;4969;52.304;4.968;2023-11-21T12:38:33;10.45;86.65
9861;DHT22;4969;52.304;4.968;2023-11-21T12:41:00;10.36;86.95
9861;DHT22;4969;52.304;4.968;2023-11-21T12:43:28;10.21;87.57
9861;DHT22;4969;52.304;4.968;2023-11-21T12:46:04;9.96;87.09
9861;DHT22;4969;52.304;4.968;2023-11-21T12:48:32;10.13;86.81
9861;DHT22;4969;52.304;4.968;2023-11-21T12:51:00;10.19;87.42
9861;DHT22;4969;52.304;4.968;2023-11-21T12:53:28;10.02;87.47
9861;DHT22;4969;52.304;4.968;2023-11-21T12:56:02;10.33;86.69
9861;DHT22;4969;52.304;4.968;2023-11-21T12:58:28;10.02;86.90
9861;DHT22;4969;52.304;4.968;2023-11-21T13:00:57;11.02;91.30
9861;DHT22;4969;52.304;4.968;2023-11-21T13:03:25;10.28;85.98
9861;DHT22;4969;52.304;4.968;2023-11-21T13:05:53;10.13;86.31
9861;DHT22;4969;52.304;4.968;2023-11-21T13:08:25;10.14;87.34
9861;DHT22;4969;52.304;4.968;2023-11-21T13:10:53;9.98;87.41
9861;DHT22;4969;52.304;4.968;2023-11-21T13:13:20;10.03;86.79
9861;DHT22;4969;52.304;4.968;2023-11-21T13:15:48;10.13;87.33
9861;DHT22;4969;52.304;4.968;2023-11-21T13:18:15;9.98;87.13
9861;DHT22;4969;52.304;4.968;2023-11-21T13:20:43;10.13;86.53
9861;DHT22;4969;52.304;4.968;2023-11-21T13:23:10;10.19;86.51
9861;DHT22;4969;52.304;4.968;2023-11-21T13:25:39;9.91;86.86
9861;DHT22;4969;52.304;4.968;2023-11-21T13:28:07;9.86;86.79
9861;DHT22;4969;52.304;4.968;2023-11-21T13:30:35;9.88;86.81
9861;DHT22;4969;52.304;4.968;2023-11-21T13:33:02;9.83;86.77
9861;DHT22;4969;52.304;4.968;2023-11-21T13:35:32;10.24;85.73
9861;DHT22;4969;52.304;4.968;2023-11-21T13:38:04;10.02;86.24
9861;DHT22;4969;52.304;4.968;2023-11-21T13:40:32;10.05;87.34
9861;DHT22;4969;52.304;4.968;2023-11-21T13:43:04;10.42;87.91
9861;DHT22;4969;52.304;4.968;2023-11-21T13:45:31;10.03;85.20
9861;DHT22;4969;52.304;4.968;2023-11-21T13:47:57;10.10;84.66
9861;DHT22;4969;52.304;4.968;2023-11-21T13:50:24;10.24;84.76
9861;DHT22;4969;52.304;4.968;2023-11-21T13:52:55;10.21;84.14
9861;DHT22;4969;52.304;4.968;2023-11-21T13:55:22;10.76;87.49
9861;DHT22;4969;52.304;4.968;2023-11-21T13:57:50;10.42;83.77
9861;DHT22;4969;52.304;4.968;2023-11-21T14:00:19;10.33;84.00
9861;DHT22;4969;52.304;4.968;2023-11-21T14:03:03;9.99;84.82
9861;DHT22;4969;52.304;4.968;2023-11-21T14:05:35;9.92;85.14
9861;DHT22;4969;52.304;4.968;2023-11-21T14:08:02;10.48;85.88
9861;DHT22;4969;52.304;4.968;2023-11-21T14:10:30;10.09;84.75
9861;DHT22;4969;52.304;4.968;2023-11-21T14:13:05;9.92;85.06
9861;DHT22;4969;52.304;4.968;2023-11-21T14:15:33;9.78;85.85
9861;DHT22;4969;52.304;4.968;2023-11-21T14:18:03;9.79;85.43
9861;DHT22;4969;52.304;4.968;2023-11-21T14:20:33;9.81;85.51
9861;DHT22;4969;52.304;4.968;2023-11-21T14:23:01;9.96;84.90
9861;DHT22;4969;52.304;4.968;2023-11-21T14:25:28;9.88;85.98
9861;DHT22;4969;52.304;4.968;2023-11-21T14:27:54;9.96;84.95
9861;DHT22;4969;52.304;4.968;2023-11-21T14:30:21;10.02;84.76
9861;DHT22;4969;52.304;4.968;2023-11-21T14:32:49;9.89;84.89
9861;DHT22;4969;52.304;4.968;2023-11-21T14:35:16;9.93;86.05
9861;DHT22;4969;52.304;4.968;2023-11-21T14:37:43;10.20;85.46
9861;DHT22;4969;52.304;4.968;2023-11-21T14:40:11;10.26;82.86
9861;DHT22;4969;52.304;4.968;2023-11-21T14:42:41;10.19;84.34
9861;DHT22;4969;52.304;4.968;2023-11-21T14:45:09;9.86;83.90
9861;DHT22;4969;52.304;4.968;2023-11-21T14:47:37;9.69;83.42
9861;DHT22;4969;52.304;4.968;2023-11-21T14:50:11;9.59;84.29
9861;DHT22;4969;52.304;4.968;2023-11-21T14:53:04;9.52;84.14
9861;DHT22;4969;52.304;4.968;2023-11-21T14:55:32;9.58;84.18
9861;DHT22;4969;52.304;4.968;2023-11-21T14:58:04;9.58;84.18
9861;DHT22;4969;52.304;4.968;2023-11-21T15:00:31;9.66;84.00
9861;DHT22;4969;52.304;4.968;2023-11-21T15:03:06;9.54;84.42
9861;DHT22;4969;52.304;4.968;2023-11-21T15:05:34;10.12;86.61
9861;DHT22;4969;52.304;4.968;2023-11-21T15:08:00;10.10;83.60
9861;DHT22;4969;52.304;4.968;2023-11-21T15:10:45;10.21;84.23
9861;DHT22;4969;52.304;4.968;2023-11-21T15:13:12;10.14;87.05
9861;DHT22;4969;52.304;4.968;2023-11-21T15:15:40;10.17;83.48
9861;DHT22;4969;52.304;4.968;2023-11-21T15:18:05;10.40;80.89
9861;DHT22;4969;52.304;4.968;2023-11-21T15:20:32;10.17;80.73
9861;DHT22;4969;52.304;4.968;2023-11-21T15:22:59;10.05;83.98
9861;DHT22;4969;52.304;4.968;2023-11-21T15:25:25;10.28;81.76
9861;DHT22;4969;52.304;4.968;2023-11-21T15:27:53;9.95;81.40
9861;DHT22;4969;52.304;4.968;2023-11-21T15:30:21;10.20;81.40
9861;DHT22;4969;52.304;4.968;2023-11-21T15:32:50;10.85;81.90
9861;DHT22;4969;52.304;4.968;2023-11-21T15:35:16;9.73;80.27
9861;DHT22;4969;52.304;4.968;2023-11-21T15:37:43;9.78;81.13
9861;DHT22;4969;52.304;4.968;2023-11-21T15:40:11;9.62;81.64
9861;DHT22;4969;52.304;4.968;2023-11-21T15:42:39;9.55;82.18
9861;DHT22;4969;52.304;4.968;2023-11-21T15:45:08;9.91;80.60
9861;DHT22;4969;52.304;4.968;2023-11-21T15:47:35;9.83;82.14
9861;DHT22;4969;52.304;4.968;2023-11-21T15:50:01;9.99;81.92
9861;DHT22;4969;52.304;4.968;2023-11-21T15:52:29;10.13;81.38
9861;DHT22;4969;52.304;4.968;2023-11-21T15:54:56;10.69;82.41
9861;DHT22;4969;52.304;4.968;2023-11-21T15:57:22;10.60;85.44
9861;DHT22;4969;52.304;4.968;2023-11-21T15:59:50;10.36;86.74
9861;DHT22;4969;52.304;4.968;2023-11-21T16:02:17;10.85;79.06
9861;DHT22;4969;52.304;4.968;2023-11-21T16:04:44;11.48;77.95
9861;DHT22;4969;52.304;4.968;2023-11-21T16:07:11;10.67;77.64